createdAt,value
2023-04-13T00:00:11.591Z,99299.84
2023-04-13T00:00:33.312Z,99295.59
2023-04-13T00:00:54.997Z,99301.66
2023-04-13T00:01:16.660Z,99287.34
2023-04-13T00:01:40.622Z,99292.03
2023-04-13T00:02:02.453Z,99290.75
2023-04-13T00:02:24.414Z,99298.50
2023-04-13T00:02:46.604Z,99299.88
2023-04-13T00:03:13.632Z,99306.38
2023-04-13T00:03:37.291Z,99288.34
2023-04-13T00:04:03.945Z,99297.47
2023-04-13T00:04:26.807Z,99297.06
2023-04-13T00:04:50.761Z,99298.59
2023-04-13T00:05:13.314Z,99296.56
2023-04-13T00:05:38.027Z,99287.91
2023-04-13T00:06:00.007Z,99279.09
2023-04-13T00:06:22.917Z,99296.13
2023-04-13T00:06:47.009Z,99291.06
2023-04-13T00:07:14.866Z,99292.63
2023-04-13T00:07:38.242Z,99295.38
2023-04-13T00:08:03.109Z,99270.69
2023-04-13T00:08:25.191Z,99291.94
2023-04-13T00:08:47.911Z,99278.38
2023-04-13T00:09:09.735Z,99288.66
2023-04-13T00:09:31.515Z,99285.75
2023-04-13T00:09:53.105Z,99282.78
2023-04-13T00:10:19.114Z,99274.84
2023-04-13T00:10:41.566Z,99267.00
2023-04-13T00:11:04.455Z,99288.22
2023-04-13T00:11:27.866Z,99290.69
2023-04-13T00:11:49.560Z,99290.59
2023-04-13T00:12:13.999Z,99280.31
2023-04-13T00:12:36.350Z,99287.53
2023-04-13T00:12:58.304Z,99278.38
2023-04-13T00:13:19.906Z,99285.31
2023-04-13T00:13:42.828Z,99283.44
2023-04-13T00:14:04.713Z,99291.47
2023-04-13T00:14:28.443Z,99292.13
2023-04-13T00:14:50.950Z,99286.31
2023-04-13T00:15:12.971Z,99283.28
2023-04-13T00:15:38.045Z,99264.03
2023-04-13T00:16:01.359Z,99285.31
2023-04-13T00:16:24.276Z,99280.00
2023-04-13T00:16:47.086Z,99276.22
2023-04-13T00:17:09.857Z,99274.63
2023-04-13T00:18:00.169Z,99278.13
2023-04-13T00:18:21.862Z,99268.34
2023-04-13T00:18:45.103Z,99242.06
2023-04-13T00:19:07.278Z,99277.16
2023-04-13T00:19:28.876Z,99280.53
2023-04-13T00:19:53.776Z,99277.34
2023-04-13T00:20:16.041Z,99284.44
2023-04-13T00:20:41.653Z,99276.31
2023-04-13T00:21:03.720Z,99281.47
2023-04-13T00:21:25.748Z,99275.13
2023-04-13T00:21:47.372Z,99275.91
2023-04-13T00:22:10.657Z,99264.06
2023-04-13T00:22:34.339Z,99277.69
2023-04-13T00:22:56.377Z,99268.13
2023-04-13T00:23:18.060Z,99274.19
2023-04-13T00:23:40.613Z,99278.88
2023-04-13T00:24:04.256Z,99275.63
2023-04-13T00:24:26.168Z,99276.22
2023-04-13T00:24:48.013Z,99213.59
2023-04-13T00:25:11.881Z,99263.03
2023-04-13T00:25:34.653Z,99216.72
2023-04-13T00:25:56.788Z,99278.28
2023-04-13T00:26:22.894Z,99274.63
2023-04-13T00:26:44.840Z,99268.69
2023-04-13T00:27:08.623Z,99272.72
2023-04-13T00:27:32.047Z,99277.09
2023-04-13T00:27:55.337Z,99269.13
2023-04-13T00:28:18.880Z,99266.22
2023-04-13T00:28:42.317Z,99277.63
2023-04-13T00:29:04.140Z,99274.50
2023-04-13T00:29:26.187Z,99264.75
2023-04-13T00:29:48.029Z,99266.22
2023-04-13T00:30:11.490Z,99255.31
2023-04-13T00:30:34.624Z,99269.66
2023-04-13T00:30:59.978Z,99267.84
2023-04-13T00:31:22.325Z,99264.16
2023-04-13T00:31:44.175Z,99270.59
2023-04-13T00:32:06.161Z,99269.31
2023-04-13T00:32:28.740Z,99271.97
2023-04-13T00:32:50.541Z,99265.47
2023-04-13T00:33:12.363Z,99268.13
2023-04-13T00:33:34.031Z,99263.47
2023-04-13T00:33:57.124Z,99268.13
2023-04-13T00:34:19.000Z,99269.66
2023-04-13T00:34:41.328Z,99263.22
2023-04-13T00:35:03.119Z,99251.16
2023-04-13T00:35:26.497Z,99257.25
2023-04-13T00:35:49.137Z,99269.13
2023-04-13T00:36:10.913Z,99258.19
2023-04-13T00:36:32.956Z,99263.56
2023-04-13T00:36:55.712Z,99261.09
2023-04-13T00:37:18.811Z,99258.19
2023-04-13T00:37:43.029Z,99258.94
2023-04-13T00:38:04.892Z,99270.25
2023-04-13T00:38:27.267Z,99261.59
2023-04-13T00:38:48.925Z,99263.03
2023-04-13T00:39:11.828Z,99259.28
2023-04-13T00:39:33.737Z,99259.88
2023-04-13T00:39:56.307Z,99256.28
2023-04-13T00:40:18.611Z,99268.53
2023-04-13T00:40:41.211Z,99265.63
2023-04-13T00:41:03.986Z,99250.72
2023-04-13T00:41:26.073Z,99262.13
2023-04-13T00:41:47.642Z,99262.03
2023-04-13T00:42:09.406Z,99256.03
2023-04-13T00:42:33.372Z,99262.38
2023-04-13T00:42:54.991Z,99260.47
2023-04-13T00:43:16.876Z,99264.69
2023-04-13T00:43:39.732Z,99261.84
2023-04-13T00:44:02.182Z,99257.31
2023-04-13T00:44:23.812Z,99258.25
2023-04-13T00:44:45.461Z,99252.94
2023-04-13T00:45:09.517Z,99249.78
2023-04-13T00:45:38.926Z,99257.66
2023-04-13T00:46:00.773Z,99255.28
2023-04-13T00:46:22.829Z,99251.75
2023-04-13T00:46:46.547Z,99256.28
2023-04-13T00:47:08.645Z,99257.06
2023-04-13T00:47:33.942Z,99255.59
2023-04-13T00:47:57.816Z,99251.09
2023-04-13T00:48:19.600Z,99255.28
2023-04-13T00:48:43.123Z,99263.72
2023-04-13T00:49:04.793Z,99255.75
2023-04-13T00:49:27.568Z,99265.28
2023-04-13T00:49:49.380Z,99255.69
2023-04-13T00:50:11.241Z,99253.63
2023-04-13T00:50:35.073Z,99250.97
2023-04-13T00:50:56.966Z,99258.94
2023-04-13T00:51:18.646Z,99254.81
2023-04-13T00:51:40.561Z,99254.66
2023-04-13T00:52:05.395Z,99261.59
2023-04-13T00:52:27.288Z,99251.03
2023-04-13T00:52:49.294Z,99220.91
2023-04-13T00:53:13.693Z,99254.31
2023-04-13T00:53:37.087Z,99262.19
2023-04-13T00:53:59.445Z,99262.19
2023-04-13T00:54:22.240Z,99258.34
2023-04-13T00:54:43.888Z,99250.19
2023-04-13T00:55:08.470Z,99248.13
2023-04-13T00:55:30.512Z,99263.78
2023-04-13T00:55:53.257Z,99246.84
2023-04-13T00:56:15.175Z,99263.53
2023-04-13T00:56:38.306Z,99255.47
2023-04-13T00:57:00.817Z,99251.38
2023-04-13T00:57:24.158Z,99255.50
2023-04-13T00:57:49.998Z,99229.06
2023-04-13T00:58:14.448Z,99202.78
2023-04-13T00:58:36.702Z,99262.59
2023-04-13T00:58:59.072Z,99256.09
2023-04-13T00:59:20.973Z,99255.00
2023-04-13T00:59:44.149Z,99256.63
2023-04-13T01:00:08.553Z,99252.94
2023-04-13T01:00:30.217Z,99250.97
2023-04-13T01:00:52.853Z,99252.56
2023-04-13T01:01:14.464Z,99272.03
2023-04-13T01:01:45.752Z,99252.09
2023-04-13T01:02:07.662Z,99245.66
2023-04-13T01:02:29.806Z,99251.41
2023-04-13T01:02:52.966Z,99261.09
2023-04-13T01:03:14.937Z,99252.53
2023-04-13T01:03:37.072Z,99253.81
2023-04-13T01:03:59.475Z,99254.47
2023-04-13T01:04:22.401Z,99254.47
2023-04-13T01:04:49.221Z,99258.78
2023-04-13T01:05:12.614Z,99253.53
2023-04-13T01:05:39.977Z,99256.81
2023-04-13T01:06:14.436Z,99253.56
2023-04-13T01:06:42.671Z,99262.13
2023-04-13T01:07:12.997Z,99260.13
2023-04-13T01:07:41.428Z,99253.97
2023-04-13T01:08:13.252Z,99253.53
2023-04-13T01:08:38.699Z,99255.84
2023-04-13T01:09:08.245Z,99247.03
2023-04-13T01:09:35.135Z,99252.53
2023-04-13T01:10:05.094Z,99251.91
2023-04-13T01:10:33.701Z,99245.06
2023-04-13T01:11:04.207Z,99260.41
2023-04-13T01:11:31.487Z,99243.19
2023-04-13T01:12:00.137Z,99253.63
2023-04-13T01:12:30.020Z,99244.47
2023-04-13T01:13:00.215Z,99239.94
2023-04-13T01:13:29.618Z,99251.09
2023-04-13T01:14:01.849Z,99245.00
2023-04-13T01:14:30.632Z,99249.25
2023-04-13T01:14:58.741Z,99244.47
2023-04-13T01:15:22.337Z,99240.88
2023-04-13T01:15:52.293Z,99241.81
2023-04-13T01:16:20.528Z,99241.81
2023-04-13T01:16:49.088Z,99243.19
2023-04-13T01:18:41.520Z,99243.19
2023-04-13T01:19:59.560Z,99226.72
2023-04-13T01:20:28.745Z,99251.81
2023-04-13T01:20:53.076Z,99235.03
2023-04-13T01:21:19.473Z,99248.66
2023-04-13T01:21:43.482Z,99246.44
2023-04-13T01:22:06.557Z,99230.84
2023-04-13T01:22:30.068Z,99250.63
2023-04-13T01:22:55.749Z,99232.66
2023-04-13T01:23:27.558Z,99246.25
2023-04-13T01:23:57.609Z,99247.81
2023-04-13T01:24:32.141Z,99250.38
2023-04-13T01:25:07.767Z,99231.88
2023-04-13T01:25:38.769Z,99251.94
2023-04-13T01:26:06.970Z,99251.16
2023-04-13T01:26:36.960Z,99252.53
2023-04-13T01:27:08.175Z,99255.69
2023-04-13T01:27:43.035Z,99245.25
2023-04-13T01:28:08.404Z,99248.66
2023-04-13T01:28:31.138Z,99258.94
2023-04-13T01:28:53.566Z,99245.59
2023-04-13T01:29:17.164Z,99244.81
2023-04-13T01:29:44.175Z,99253.22
2023-04-13T01:30:08.429Z,99252.34
2023-04-13T01:30:31.520Z,99248.66
2023-04-13T01:30:57.265Z,99253.81
2023-04-13T01:31:20.242Z,99248.91
2023-04-13T01:31:43.577Z,99253.81
2023-04-13T01:32:06.902Z,99257.22
2023-04-13T01:32:28.916Z,99249.38
2023-04-13T01:32:53.053Z,99245.66
2023-04-13T01:33:16.104Z,99252.28
2023-04-13T01:33:40.434Z,99257.31
2023-04-13T01:34:04.796Z,99260.66
2023-04-13T01:34:26.831Z,99262.28
2023-04-13T01:34:50.085Z,99262.19
2023-04-13T01:35:14.471Z,99266.50
2023-04-13T01:35:38.146Z,99263.91
2023-04-13T01:36:02.931Z,99253.28
2023-04-13T01:36:25.978Z,99262.72
2023-04-13T01:36:48.054Z,99264.25
2023-04-13T01:37:10.761Z,99263.91
2023-04-13T01:37:33.754Z,99260.91
2023-04-13T01:37:57.594Z,99255.50
2023-04-13T01:38:24.589Z,99251.75
2023-04-13T01:38:48.932Z,99262.13
2023-04-13T01:39:20.111Z,99271.81
2023-04-13T01:39:42.996Z,99256.53
2023-04-13T01:40:15.219Z,99262.53
2023-04-13T01:40:41.682Z,99261.34
2023-04-13T01:41:06.405Z,99257.56
2023-04-13T01:41:30.314Z,99260.91
2023-04-13T01:41:51.921Z,99255.50
2023-04-13T01:42:14.059Z,99259.13
2023-04-13T01:42:37.490Z,99253.63
2023-04-13T01:43:00.072Z,99248.50
2023-04-13T01:43:28.231Z,99253.28
2023-04-13T01:44:01.254Z,99259.06
2023-04-13T01:44:33.409Z,99240.53
2023-04-13T01:44:57.607Z,99252.41
2023-04-13T01:45:22.065Z,99251.38
2023-04-13T01:45:47.823Z,99242.91
2023-04-13T01:46:13.852Z,99257.47
2023-04-13T01:46:47.600Z,99259.25
2023-04-13T01:47:30.392Z,99256.09
2023-04-13T01:48:13.899Z,99255.53
2023-04-13T01:48:50.449Z,99236.16
2023-04-13T01:49:37.380Z,99258.94
2023-04-13T01:50:06.297Z,99252.16
2023-04-13T01:50:38.550Z,99242.94
2023-04-13T01:51:14.860Z,99249.69
2023-04-13T01:51:42.666Z,99255.50
2023-04-13T01:52:07.918Z,99251.91
2023-04-13T01:52:34.111Z,99253.63
2023-04-13T01:53:07.812Z,99265.38
2023-04-13T01:53:36.867Z,99248.06
2023-04-13T01:54:07.761Z,99253.09
2023-04-13T01:54:33.693Z,99240.03
2023-04-13T01:54:56.564Z,99245.00
2023-04-13T01:55:19.484Z,99243.78
2023-04-13T01:55:48.490Z,99251.41
2023-04-13T01:56:12.930Z,99252.34
2023-04-13T01:56:37.528Z,99253.81
2023-04-13T01:57:00.428Z,99251.91
2023-04-13T01:57:23.034Z,99251.56
2023-04-13T01:57:48.720Z,99247.97
2023-04-13T01:58:13.082Z,99244.81
2023-04-13T01:58:36.391Z,99253.69
2023-04-13T01:59:07.036Z,99238.56
2023-04-13T01:59:30.163Z,99244.13
2023-04-13T01:59:51.792Z,99242.16
2023-04-13T02:00:18.200Z,99239.50
2023-04-13T02:00:43.897Z,99249.78
2023-04-13T02:01:07.821Z,99236.69
2023-04-13T02:01:29.712Z,99249.78
2023-04-13T02:01:54.594Z,99241.63
2023-04-13T02:02:17.861Z,99237.34
2023-04-13T02:02:39.869Z,99248.38
2023-04-13T02:03:05.216Z,99249.16
2023-04-13T02:03:27.318Z,99243.66
2023-04-13T02:03:49.257Z,99239.94
2023-04-13T02:04:12.487Z,99253.38
2023-04-13T02:04:36.671Z,99247.22
2023-04-13T02:04:59.757Z,99248.81
2023-04-13T02:05:21.787Z,99206.34
2023-04-13T02:05:43.485Z,99247.03
2023-04-13T02:06:07.363Z,99249.38
2023-04-13T02:06:30.278Z,99247.19
2023-04-13T02:06:52.652Z,99248.91
2023-04-13T02:07:20.858Z,99251.69
2023-04-13T02:07:45.693Z,99249.50
2023-04-13T02:08:08.127Z,99234.69
2023-04-13T02:08:35.073Z,99248.13
2023-04-13T02:08:56.771Z,99247.78
2023-04-13T02:09:18.357Z,99249.31
2023-04-13T02:09:41.424Z,99247.44
2023-04-13T02:10:06.013Z,99254.47
2023-04-13T02:10:27.812Z,99245.72
2023-04-13T02:10:50.501Z,99255.16
2023-04-13T02:11:13.450Z,99247.97
2023-04-13T02:11:35.759Z,99253.88
2023-04-13T02:11:59.296Z,99254.81
2023-04-13T02:12:21.181Z,99245.19
2023-04-13T02:12:44.559Z,99257.72
2023-04-13T02:13:09.423Z,99258.75
2023-04-13T02:13:31.259Z,99263.91
2023-04-13T02:13:53.728Z,99256.94
2023-04-13T02:14:16.891Z,99258.59
2023-04-13T02:14:38.538Z,99264.06
2023-04-13T02:15:01.173Z,99260.19
2023-04-13T02:15:23.010Z,99259.94
2023-04-13T02:15:46.022Z,99266.19
2023-04-13T02:16:09.078Z,99262.94
2023-04-13T02:16:30.909Z,99265.59
2023-04-13T02:16:53.665Z,99256.88
2023-04-13T02:17:15.785Z,99262.19
2023-04-13T02:17:39.216Z,99265.78
2023-04-13T02:18:02.417Z,99265.44
2023-04-13T02:18:24.606Z,99259.25
2023-04-13T02:18:46.604Z,99258.22
2023-04-13T02:19:08.388Z,99248.50
2023-04-13T02:19:31.996Z,99266.22
2023-04-13T02:19:57.636Z,99246.84
2023-04-13T02:20:19.762Z,99270.75
2023-04-13T02:20:44.613Z,99278.47
2023-04-13T02:21:09.344Z,99262.13
2023-04-13T02:21:30.994Z,99267.31
2023-04-13T02:21:53.449Z,99268.88
2023-04-13T02:22:16.237Z,99264.31
2023-04-13T02:22:39.400Z,99274.88
2023-04-13T02:23:01.392Z,99258.84
2023-04-13T02:23:23.083Z,99263.31
2023-04-13T02:23:44.823Z,99266.81
2023-04-13T02:24:08.482Z,99263.97
2023-04-13T02:24:30.240Z,99255.81
2023-04-13T02:24:51.886Z,99266.19
2023-04-13T02:25:15.404Z,99262.59
2023-04-13T02:25:39.141Z,99263.38
2023-04-13T02:26:01.378Z,99263.91
2023-04-13T02:26:23.187Z,99259.00
2023-04-13T02:26:46.499Z,99260.19
2023-04-13T02:27:10.517Z,99269.69
2023-04-13T02:27:35.660Z,99258.06
2023-04-13T02:28:02.502Z,99245.88
2023-04-13T02:28:29.757Z,99256.53
2023-04-13T02:28:52.702Z,99253.88
2023-04-13T02:29:27.772Z,99250.88
2023-04-13T02:29:52.662Z,99258.41
2023-04-13T02:30:22.140Z,99255.75
2023-04-13T02:30:44.847Z,99248.44
2023-04-13T02:31:07.323Z,99202.56
2023-04-13T02:31:33.685Z,99260.28
2023-04-13T02:31:56.347Z,99267.25
2023-04-13T02:32:18.858Z,99245.75
2023-04-13T02:32:41.898Z,99245.31
2023-04-13T02:33:04.807Z,99249.69
2023-04-13T02:33:31.462Z,99246.53
2023-04-13T02:33:57.617Z,99258.00
2023-04-13T02:34:21.614Z,99252.63
2023-04-13T02:34:44.081Z,99240.81
2023-04-13T02:35:12.489Z,99240.94
2023-04-13T02:35:39.090Z,99251.91
2023-04-13T02:36:05.202Z,99249.69
2023-04-13T02:36:34.861Z,99247.97
2023-04-13T02:37:03.248Z,99239.34
2023-04-13T02:37:25.536Z,99235.72
2023-04-13T02:37:49.861Z,99234.03
2023-04-13T02:38:13.781Z,99242.22
2023-04-13T02:38:43.355Z,99255.94
2023-04-13T02:39:16.270Z,99250.25
2023-04-13T02:39:40.038Z,99226.00
2023-04-13T02:40:04.255Z,99249.22
2023-04-13T02:40:28.291Z,99250.81
2023-04-13T02:40:55.528Z,99251.88
2023-04-13T02:41:22.751Z,99245.56
2023-04-13T02:41:47.689Z,99209.09
2023-04-13T02:42:16.683Z,99251.47
2023-04-13T02:42:44.863Z,99251.38
2023-04-13T02:43:07.465Z,99256.09
2023-04-13T02:43:36.790Z,99231.19
2023-04-13T02:44:00.101Z,99236.50
2023-04-13T02:44:29.107Z,99242.06
2023-04-13T02:44:53.222Z,99255.06
2023-04-13T02:45:18.635Z,99255.94
2023-04-13T02:45:45.210Z,99250.34
2023-04-13T02:46:13.524Z,99247.97
2023-04-13T02:46:38.305Z,99246.00
2023-04-13T02:47:07.362Z,99258.94
2023-04-13T02:47:34.138Z,99244.53
2023-04-13T02:48:05.877Z,99247.97
2023-04-13T02:48:31.694Z,99242.22
2023-04-13T02:48:57.911Z,99219.78
2023-04-13T02:49:24.615Z,99254.31
2023-04-13T02:49:59.472Z,99262.28
2023-04-13T02:50:29.717Z,99253.97
2023-04-13T02:50:56.622Z,99255.69
2023-04-13T02:51:23.293Z,99252.09
2023-04-13T02:51:44.997Z,99247.13
2023-04-13T02:52:08.760Z,99253.63
2023-04-13T02:52:39.572Z,99246.19
2023-04-13T02:53:02.498Z,99244.47
2023-04-13T02:53:25.204Z,99191.88
2023-04-13T02:53:54.504Z,99202.63
2023-04-13T02:54:22.268Z,99250.22
2023-04-13T02:54:44.804Z,99237.88
2023-04-13T02:55:09.798Z,99253.13
2023-04-13T02:55:50.588Z,99248.41
2023-04-13T02:56:17.061Z,99255.78
2023-04-13T02:56:58.763Z,99253.13
2023-04-13T02:57:22.469Z,99260.06
2023-04-13T02:57:52.058Z,99256.72
2023-04-13T02:58:17.303Z,99201.16
2023-04-13T02:58:48.771Z,99228.19
2023-04-13T02:59:13.961Z,99256.22
2023-04-13T02:59:38.379Z,99254.66
2023-04-13T03:00:14.128Z,99253.28
2023-04-13T03:00:50.142Z,99246.78
2023-04-13T03:01:18.082Z,99245.78
2023-04-13T03:01:40.440Z,99243.59
2023-04-13T03:02:06.886Z,99254.41
2023-04-13T03:02:30.062Z,99242.06
2023-04-13T03:03:00.490Z,99253.97
2023-04-13T03:03:27.545Z,99261.00
2023-04-13T03:03:52.384Z,99251.31
2023-04-13T03:04:18.164Z,99245.25
2023-04-13T03:04:40.591Z,99260.91
2023-04-13T03:05:06.000Z,99259.78
2023-04-13T03:05:31.338Z,99256.28
2023-04-13T03:05:54.520Z,99251.91
2023-04-13T03:06:22.898Z,99250.91
2023-04-13T03:06:54.375Z,99214.16
2023-04-13T03:07:20.812Z,99237.88
2023-04-13T03:07:46.737Z,99254.63
2023-04-13T03:08:10.422Z,99251.81
2023-04-13T03:08:36.949Z,99256.19
2023-04-13T03:09:05.875Z,99257.41
2023-04-13T03:09:39.950Z,99258.88
2023-04-13T03:10:05.690Z,99258.88
2023-04-13T03:10:31.951Z,99243.94
2023-04-13T03:11:01.397Z,99244.91
2023-04-13T03:11:25.174Z,99257.59
2023-04-13T03:12:07.670Z,99224.78
2023-04-13T03:12:31.159Z,99253.13
2023-04-13T03:12:55.049Z,99241.81
2023-04-13T03:13:18.235Z,99241.56
2023-04-13T03:13:42.116Z,99266.41
2023-04-13T03:14:07.905Z,99242.84
2023-04-13T03:14:33.282Z,99245.19
2023-04-13T03:15:03.229Z,99255.16
2023-04-13T03:15:25.810Z,99232.72
2023-04-13T03:15:50.886Z,99255.50
2023-04-13T03:16:13.557Z,99257.94
2023-04-13T03:16:35.719Z,99249.84
2023-04-13T03:16:58.561Z,99256.63
2023-04-13T03:17:30.066Z,99240.94
2023-04-13T03:17:52.818Z,99224.09
2023-04-13T03:18:18.954Z,99255.34
2023-04-13T03:18:45.659Z,99213.72
2023-04-13T03:19:07.780Z,99257.22
2023-04-13T03:19:31.610Z,99252.56
2023-04-13T03:19:54.773Z,99257.88
2023-04-13T03:20:21.127Z,99214.31
2023-04-13T03:20:49.659Z,99250.97
2023-04-13T03:21:23.018Z,99258.94
2023-04-13T03:21:58.446Z,99258.41
2023-04-13T03:22:24.424Z,99246.19
2023-04-13T03:22:46.779Z,99219.03
2023-04-13T03:23:10.654Z,99268.44
2023-04-13T03:23:33.804Z,99218.44
2023-04-13T03:23:56.465Z,99265.09
2023-04-13T03:24:20.240Z,99265.91
2023-04-13T03:24:43.501Z,99255.63
2023-04-13T03:25:11.706Z,99267.09
2023-04-13T03:25:36.131Z,99254.41
2023-04-13T03:26:01.205Z,99250.91
2023-04-13T03:26:25.072Z,99265.03
2023-04-13T03:26:48.957Z,99268.81
2023-04-13T03:27:17.268Z,99262.31
2023-04-13T03:27:44.287Z,99264.69
2023-04-13T03:28:07.733Z,99264.97
2023-04-13T03:28:34.931Z,99212.53
2023-04-13T03:28:58.179Z,99273.59
2023-04-13T03:29:23.967Z,99231.31
2023-04-13T03:29:47.044Z,99262.97
2023-04-13T03:30:15.545Z,99246.44
2023-04-13T03:30:48.553Z,99271.81
2023-04-13T03:31:11.827Z,99264.44
2023-04-13T03:31:34.108Z,99264.25
2023-04-13T03:32:06.273Z,99263.31
2023-04-13T03:32:32.846Z,99251.22
2023-04-13T03:32:56.759Z,99264.19
2023-04-13T03:33:21.717Z,99218.38
2023-04-13T03:33:43.946Z,99256.09
2023-04-13T03:34:07.014Z,99233.00
2023-04-13T03:34:36.017Z,99249.19
2023-04-13T03:35:06.205Z,99275.28
2023-04-13T03:35:30.497Z,99262.03
2023-04-13T03:35:55.926Z,99269.75
2023-04-13T03:36:23.934Z,99262.91
2023-04-13T03:36:46.628Z,99265.56
2023-04-13T03:37:11.133Z,99262.78
2023-04-13T03:37:40.332Z,99273.34
2023-04-13T03:38:11.882Z,99272.81
2023-04-13T03:38:40.007Z,99251.84
2023-04-13T03:39:02.957Z,99273.16
2023-04-13T03:39:31.623Z,99273.34
2023-04-13T03:39:53.979Z,99230.66
2023-04-13T03:40:22.607Z,99275.06
2023-04-13T03:40:47.702Z,99272.28
2023-04-13T03:41:12.710Z,99274.78
2023-04-13T03:41:39.840Z,99276.06
2023-04-13T03:42:04.733Z,99257.94
2023-04-13T03:42:28.219Z,99272.56
2023-04-13T03:42:55.236Z,99271.44
2023-04-13T03:43:20.786Z,99268.88
2023-04-13T03:43:52.276Z,99250.44
2023-04-13T03:44:15.747Z,99278.81
2023-04-13T03:44:39.152Z,99279.19
2023-04-13T03:45:05.966Z,99228.38
2023-04-13T03:45:28.743Z,99282.50
2023-04-13T03:45:53.486Z,99250.91
2023-04-13T03:46:16.390Z,99283.69
2023-04-13T03:46:38.260Z,99277.34
2023-04-13T03:47:10.047Z,99277.53
2023-04-13T03:47:32.622Z,99277.03
2023-04-13T03:47:55.653Z,99281.38
2023-04-13T03:48:19.196Z,99274.97
2023-04-13T03:48:42.050Z,99274.72
2023-04-13T03:49:10.294Z,99269.47
2023-04-13T03:49:33.008Z,99277.97
2023-04-13T03:49:55.716Z,99272.41
2023-04-13T03:50:17.661Z,99274.19
2023-04-13T03:50:39.244Z,99280.38
2023-04-13T03:51:03.623Z,99275.91
2023-04-13T03:51:37.525Z,99275.41
2023-04-13T03:51:59.192Z,99273.69
2023-04-13T03:52:22.619Z,99274.34
2023-04-13T03:52:51.182Z,99279.50
2023-04-13T03:53:13.936Z,99282.91
2023-04-13T03:53:38.804Z,99276.59
2023-04-13T03:54:01.001Z,99290.63
2023-04-13T03:54:24.095Z,99278.28
2023-04-13T03:54:46.534Z,99284.09
2023-04-13T03:55:10.040Z,99271.09
2023-04-13T03:55:33.632Z,99280.44
2023-04-13T03:56:01.650Z,99278.53
2023-04-13T03:56:27.360Z,99280.31
2023-04-13T03:56:51.221Z,99292.41
2023-04-13T03:57:13.670Z,99288.75
2023-04-13T03:57:37.661Z,99284.13
2023-04-13T03:58:05.033Z,99286.59
2023-04-13T03:58:27.260Z,99258.22
2023-04-13T03:58:49.312Z,99285.66
2023-04-13T03:59:16.690Z,99292.16
2023-04-13T03:59:39.768Z,99280.69
2023-04-13T04:00:07.837Z,99282.25
2023-04-13T04:01:01.635Z,99276.75
2023-04-13T04:01:40.282Z,99289.59
2023-04-13T04:02:03.870Z,99291.91
2023-04-13T04:02:28.224Z,99258.34
2023-04-13T04:02:50.251Z,99275.47
2023-04-13T04:03:25.416Z,99279.56
2023-04-13T04:03:58.594Z,99283.69
2023-04-13T04:04:23.560Z,99285.16
2023-04-13T04:04:51.364Z,99268.34
2023-04-13T04:05:19.751Z,99283.94
2023-04-13T04:05:46.793Z,99287.38
2023-04-13T04:06:11.301Z,99285.91
2023-04-13T04:06:37.293Z,99250.03
2023-04-13T04:07:08.807Z,99289.25
2023-04-13T04:07:32.351Z,99285.50
2023-04-13T04:07:59.540Z,99277.19
2023-04-13T04:08:27.363Z,99292.69
2023-04-13T04:08:52.451Z,99289.63
2023-04-13T04:09:27.093Z,99283.00
2023-04-13T04:09:52.041Z,99285.84
2023-04-13T04:10:19.307Z,99293.53
2023-04-13T04:10:43.828Z,99289.50
2023-04-13T04:11:08.338Z,99281.44
2023-04-13T04:11:30.170Z,99285.47
2023-04-13T04:11:53.522Z,99292.06
2023-04-13T04:12:23.521Z,99236.91
2023-04-13T04:12:47.140Z,99287.28
2023-04-13T04:13:10.918Z,99266.63
2023-04-13T04:13:41.127Z,99263.19
2023-04-13T04:14:07.960Z,99282.91
2023-04-13T04:14:31.199Z,99280.53
2023-04-13T04:15:10.929Z,99248.81
2023-04-13T04:15:34.920Z,99282.91
2023-04-13T04:16:01.025Z,99280.91
2023-04-13T04:16:30.310Z,99287.97
2023-04-13T04:17:01.318Z,99281.00
2023-04-13T04:17:25.306Z,99273.88
2023-04-13T04:17:47.079Z,99295.41
2023-04-13T04:18:11.571Z,99290.28
2023-04-13T04:18:35.880Z,99288.41
2023-04-13T04:19:01.882Z,99281.19
2023-04-13T04:19:28.717Z,99274.16
2023-04-13T04:19:53.446Z,99291.16
2023-04-13T04:20:22.100Z,99292.75
2023-04-13T04:20:45.902Z,99277.94
2023-04-13T04:21:13.823Z,99254.28
2023-04-13T04:21:40.125Z,99300.06
2023-04-13T04:22:07.290Z,99293.53
2023-04-13T04:22:36.695Z,99296.13
2023-04-13T04:23:01.754Z,99297.66
2023-04-13T04:23:28.900Z,99302.78
2023-04-13T04:24:00.754Z,99299.09
2023-04-13T04:24:23.539Z,99302.44
2023-04-13T04:24:50.749Z,99301.38
2023-04-13T04:25:12.786Z,99301.50
2023-04-13T04:25:38.028Z,99306.88
2023-04-13T04:25:59.696Z,99301.84
2023-04-13T04:26:26.244Z,99289.44
2023-04-13T04:26:57.874Z,99301.31
2023-04-13T04:27:20.471Z,99297.66
2023-04-13T04:27:46.823Z,99296.59
2023-04-13T04:28:08.567Z,99301.84
2023-04-13T04:28:31.399Z,99299.78
2023-04-13T04:29:02.335Z,99296.88
2023-04-13T04:29:33.835Z,99305.19
2023-04-13T04:29:59.268Z,99308.28
2023-04-13T04:30:29.617Z,99306.56
2023-04-13T04:30:55.258Z,99300.31
2023-04-13T04:31:18.224Z,99313.13
2023-04-13T04:31:44.299Z,99305.28
2023-04-13T04:32:12.876Z,99307.78
2023-04-13T04:32:36.398Z,99314.63
2023-04-13T04:33:04.260Z,99311.88
2023-04-13T04:33:30.893Z,99306.56
2023-04-13T04:33:53.494Z,99316.16
2023-04-13T04:34:16.797Z,99289.94
2023-04-13T04:34:38.759Z,99303.22
2023-04-13T04:35:00.658Z,99289.34
2023-04-13T04:35:26.286Z,99307.19
2023-04-13T04:35:51.417Z,99309.66
2023-04-13T04:36:24.110Z,99315.06
2023-04-13T04:36:54.034Z,99321.13
2023-04-13T04:37:21.187Z,99311.56
2023-04-13T04:37:55.794Z,99322.00
2023-04-13T04:38:18.576Z,99317.72
2023-04-13T04:38:41.956Z,99321.50
2023-04-13T04:39:04.741Z,99316.94
2023-04-13T04:39:35.269Z,99323.38
2023-04-13T04:40:08.194Z,99313.25
2023-04-13T04:40:35.732Z,99305.38
2023-04-13T04:41:01.998Z,99317.03
2023-04-13T04:41:24.660Z,99312.66
2023-04-13T04:41:54.054Z,99323.22
2023-04-13T04:42:18.815Z,99318.50
2023-04-13T04:42:42.064Z,99310.00
2023-04-13T04:43:13.270Z,99327.28
2023-04-13T04:43:40.321Z,99329.59
2023-04-13T04:44:03.334Z,99321.38
2023-04-13T04:44:32.759Z,99334.06
2023-04-13T04:44:59.573Z,99337.00
2023-04-13T04:45:27.376Z,99334.22
2023-04-13T04:45:53.010Z,99332.78
2023-04-13T04:46:16.186Z,99335.16
2023-04-13T04:46:43.671Z,99328.31
2023-04-13T04:47:09.833Z,99330.28
2023-04-13T04:47:50.498Z,99339.72
2023-04-13T04:48:15.681Z,99337.47
2023-04-13T04:48:41.692Z,99331.56
2023-04-13T04:49:03.680Z,99327.63
2023-04-13T04:49:27.979Z,99336.88
2023-04-13T04:49:50.586Z,99343.75
2023-04-13T04:50:14.517Z,99338.78
2023-04-13T04:50:38.683Z,99337.72
2023-04-13T04:51:08.379Z,99346.41
2023-04-13T04:51:30.886Z,99350.28
2023-04-13T04:51:54.970Z,99343.25
2023-04-13T04:52:16.561Z,99346.41
2023-04-13T04:52:38.956Z,99326.06
2023-04-13T04:53:01.147Z,99347.13
2023-04-13T04:53:24.752Z,99347.00
2023-04-13T04:53:46.698Z,99348.09
2023-04-13T04:54:08.441Z,99345.22
2023-04-13T04:54:30.482Z,99351.94
2023-04-13T04:54:53.846Z,99352.75
2023-04-13T04:55:15.866Z,99346.16
2023-04-13T04:55:38.307Z,99358.50
2023-04-13T04:56:01.171Z,99369.59
2023-04-13T04:56:34.683Z,99351.94
2023-04-13T04:56:57.980Z,99362.69
2023-04-13T04:57:20.611Z,99359.06
2023-04-13T04:57:44.441Z,99337.81
2023-04-13T04:58:09.484Z,99360.28
2023-04-13T04:58:32.978Z,99358.81
2023-04-13T04:58:54.630Z,99367.75
2023-04-13T04:59:23.897Z,99366.03